Time;durP1;ratioP1;P1;durP2;ratioP2;P2;SDS_P1;SDS_P2;PMS_P1;PMS_P2;Temp;Humidity;BMP_temperature;BMP_pressure;BME280_temperature;BME280_humidity;BME280_pressure;Samples;Min_cycle;Max_cycle;Signal;HPM_P1;HPM_P2
2022/06/22 00:00:30;;;;;;;;;;;;;;;17.39;49.46;100240.13;5007920;28;6804;-78
2022/06/22 00:02:57;;;;;;;;;;;;;;;17.33;49.24;100240.84;4981263;28;8434;-78
2022/06/22 00:05:44;;;;;;;;;;;;;;;17.29;49.34;100252.91;5016022;28;6796;-78
2022/06/22 00:08:20;;;;;;;;;;;;;;;17.26;49.40;100258.00;5016059;28;7449;-78
2022/06/22 00:10:59;;;;;;;;;;;;;;;17.23;49.35;100250.19;5008351;28;6811;-78
2022/06/22 00:13:29;;;;;;;;;;;;;;;17.18;49.48;100247.50;5022795;28;6981;-78
2022/06/22 00:16:04;;;;;;;;;;;;;;;17.13;49.92;100248.28;5001000;28;8406;-78
2022/06/22 00:18:41;;;;;;;;;;;;;;;17.08;49.48;100259.41;5009913;28;7307;-78
2022/06/22 00:21:37;;;;;;;;;;;;;;;17.04;49.93;100256.72;5004879;28;6827;-79
2022/06/22 00:24:22;;;;;;;;;;;;;;;17.00;50.12;100252.31;5007739;28;8635;-79
2022/06/22 00:27:07;;;;;;;;;;;;;;;16.96;50.23;100247.94;5021790;28;6826;-79
2022/06/22 00:29:36;;;;;;;;;;;;;;;16.92;50.65;100237.50;5018031;28;7030;-78
2022/06/22 00:32:27;;;;;;;;;;;;;;;16.91;50.73;100229.72;5003753;28;6816;-78
2022/06/22 00:34:53;;;;;;;;;;;;;;;16.87;51.01;100222.72;5003572;28;7286;-78
2022/06/22 00:37:36;;;;;;;;;;;;;;;16.83;51.01;100205.41;5019790;28;7677;-78
2022/06/22 00:40:14;;;;;;;;;;;;;;;16.83;50.98;100195.06;5017715;28;7204;-78
2022/06/22 00:42:50;;;;;;;;;;;;;;;16.82;51.30;100188.13;5023394;28;6812;-78
2022/06/22 00:45:29;;;;;;;;;;;;;;;16.78;51.14;100177.69;5019749;28;6975;-78
2022/06/22 00:48:30;;;;;;;;;;;;;;;16.75;51.72;100177.66;5024959;28;7210;-78
2022/06/22 00:51:04;;;;;;;;;;;;;;;16.73;51.62;100173.28;5011401;28;7091;-78
2022/06/22 00:53:41;;;;;;;;;;;;;;;16.70;51.76;100183.59;5019912;28;7210;-78
2022/06/22 00:56:46;;;;;;;;;;;;;;;16.68;51.47;100205.97;5020543;28;7005;-78
2022/06/22 00:59:49;;;;;;;;;;;;;;;16.64;51.89;100211.06;5024853;28;8479;-78
2022/06/22 01:02:54;;;;;;;;;;;;;;;16.61;51.84;100199.78;5009766;28;6824;-79
2022/06/22 01:05:46;;;;;;;;;;;;;;;16.57;51.87;100208.34;5016641;28;6907;-78
2022/06/22 01:08:32;;;;;;;;;;;;;;;16.50;52.18;100212.53;5009088;28;7169;-78
2022/06/22 01:14:34;;;;;;;;;;;;;;;16.44;51.76;100200.34;5029130;28;7821;-78
2022/06/22 01:17:04;;;;;;;;;;;;;;;16.41;52.14;100194.22;4999122;28;7408;-78
2022/06/22 01:19:42;;;;;;;;;;;;;;;16.38;52.23;100182.09;5014056;28;6902;-78
2022/06/22 01:22:36;;;;;;;;;;;;;;;16.35;52.82;100184.63;5015215;28;8525;-78
2022/06/22 01:25:28;;;;;;;;;;;;;;;16.30;52.22;100188.81;5010642;28;6820;-78
2022/06/22 01:27:54;;;;;;;;;;;;;;;16.29;52.80;100184.47;5019356;28;6823;-78
2022/06/22 01:30:24;;;;;;;;;;;;;;;16.28;52.63;100180.16;5004566;28;8352;-78
2022/06/22 01:32:50;;;;;;;;;;;;;;;16.27;52.33;100188.75;4998884;28;7292;-78
2022/06/22 01:35:26;;;;;;;;;;;;;;;16.21;52.46;100192.94;5000688;28;7243;-78
2022/06/22 01:37:52;;;;;;;;;;;;;;;16.17;52.70;100180.81;5001450;28;6804;-78
2022/06/22 01:40:45;;;;;;;;;;;;;;;16.13;52.42;100170.34;4998975;28;6804;-78
2022/06/22 01:43:51;;;;;;;;;;;;;;;16.08;52.95;100171.16;5011764;28;6993;-79
2022/06/22 01:46:52;;;;;;;;;;;;;;;16.05;53.16;100167.63;5007294;28;8458;-78
2022/06/22 01:49:39;;;;;;;;;;;;;;;16.01;53.16;100168.38;5013952;28;6819;-78
2022/06/22 01:52:44;;;;;;;;;;;;;;;16.03;53.18;100182.19;5004264;28;8386;-78
2022/06/22 01:56:07;;;;;;;;;;;;;;;15.99;53.17;100186.44;4995821;28;6824;-78
2022/06/22 01:58:58;;;;;;;;;;;;;;;15.92;53.57;100185.41;5002292;28;8460;-78
2022/06/22 02:02:09;;;;;;;;;;;;;;;15.88;53.43;100190.44;4993069;28;9358;-78
2022/06/22 02:04:50;;;;;;;;;;;;;;;15.82;54.17;100197.25;5022364;28;8462;-78
2022/06/22 02:07:44;;;;;;;;;;;;;;;15.78;54.33;100186.78;5011012;28;6899;-78
2022/06/22 02:10:35;;;;;;;;;;;;;;;15.78;54.40;100179.91;5008381;28;6996;-78
2022/06/22 02:13:22;;;;;;;;;;;;;;;15.77;53.83;100185.06;5021654;28;7384;-78
2022/06/22 02:16:20;;;;;;;;;;;;;;;15.75;53.89;100173.81;5006058;28;6796;-78
2022/06/22 02:19:10;;;;;;;;;;;;;;;15.73;54.15;100180.63;5015757;28;7183;-78
2022/06/22 02:21:53;;;;;;;;;;;;;;;15.70;53.96;100189.22;5008727;28;7336;-78
2022/06/22 02:24:33;;;;;;;;;;;;;;;15.67;54.29;100195.16;4996442;28;7687;-78
2022/06/22 02:27:07;;;;;;;;;;;;;;;15.66;54.09;100198.59;5016424;28;6811;-78
2022/06/22 02:29:39;;;;;;;;;;;;;;;15.67;54.81;100197.75;4986340;28;7159;-78
2022/06/22 02:32:09;;;;;;;;;;;;;;;15.65;54.51;100189.09;4993467;28;6976;-78
2022/06/22 02:34:39;;;;;;;;;;;;;;;15.66;54.30;100190.84;5010498;28;7171;-78
2022/06/22 02:37:09;;;;;;;;;;;;;;;15.67;54.46;100192.59;5011853;28;7203;-78
2022/06/22 02:40:01;;;;;;;;;;;;;;;15.67;54.39;100190.00;5001607;28;7220;-78
2022/06/22 02:45:17;;;;;;;;;;;;;;;15.63;54.55;100180.41;5009825;28;6835;-78
2022/06/22 02:47:53;;;;;;;;;;;;;;;15.61;54.64;100182.09;4995253;28;8084;-78
2022/06/22 02:50:38;;;;;;;;;;;;;;;15.57;54.63;100188.03;4987449;28;7073;-78
2022/06/22 02:53:33;;;;;;;;;;;;;;;15.53;54.46;100187.09;5000403;28;8545;-78
2022/06/22 02:56:03;;;;;;;;;;;;;;;15.50;54.92;100170.63;4996613;28;7704;-79
2022/06/22 02:58:37;;;;;;;;;;;;;;;15.48;54.82;100164.56;5017366;28;8626;-79
2022/06/22 03:01:17;;;;;;;;;;;;;;;15.47;54.99;100161.09;5012044;28;6968;-79
2022/06/22 03:03:58;;;;;;;;;;;;;;;15.45;55.11;100148.97;4997645;28;10909;-79
2022/06/22 03:06:34;;;;;;;;;;;;;;;15.43;55.52;100158.41;5017059;28;6993;-78
2022/06/22 03:09:04;;;;;;;;;;;;;;;15.43;55.79;100161.00;5007999;28;8579;-78
2022/06/22 03:11:36;;;;;;;;;;;;;;;15.43;55.55;100161.00;5018844;28;7173;-78
2022/06/22 03:14:28;;;;;;;;;;;;;;;15.44;54.86;100158.44;5016630;28;6803;-78
2022/06/22 03:17:23;;;;;;;;;;;;;;;15.45;55.03;100159.31;5007321;28;8365;-78
2022/06/22 03:19:56;;;;;;;;;;;;;;;15.45;55.17;100152.44;4997574;28;8102;-79
2022/06/22 03:22:38;;;;;;;;;;;;;;;15.45;55.36;100152.44;4999060;28;8847;-79
2022/06/22 03:25:48;;;;;;;;;;;;;;;15.48;56.42;100159.41;5016165;28;6966;-79
2022/06/22 03:28:31;;;;;;;;;;;;;;;15.52;55.62;100162.09;5029158;28;7157;-79
2022/06/22 03:31:23;;;;;;;;;;;;;;;15.57;55.81;100166.50;4986284;28;7954;-79
2022/06/22 03:34:02;;;;;;;;;;;;;;;15.58;55.68;100163.94;5004133;28;8099;-79
2022/06/22 03:36:59;;;;;;;;;;;;;;;15.61;56.00;100166.59;5011451;28;7274;-79
2022/06/22 03:39:33;;;;;;;;;;;;;;;15.62;56.27;100165.75;5016266;28;6895;-79
2022/06/22 03:42:10;;;;;;;;;;;;;;;15.64;56.22;100158.91;4998953;28;8812;-79
2022/06/22 03:44:42;;;;;;;;;;;;;;;15.68;56.06;100167.59;5012664;28;6981;-79
2022/06/22 03:47:22;;;;;;;;;;;;;;;15.74;56.22;100167.75;5015279;28;6980;-80
2022/06/22 03:50:13;;;;;;;;;;;;;;;15.80;56.49;100167.91;5023375;28;8859;-81
2022/06/22 03:52:51;;;;;;;;;;;;;;;15.87;56.08;100174.09;5008317;28;7402;-79
2022/06/22 03:55:27;;;;;;;;;;;;;;;15.95;56.16;100182.03;5031276;28;7259;-79
2022/06/22 03:57:56;;;;;;;;;;;;;;;16.00;55.95;100179.56;5013180;28;7129;-79
2022/06/22 04:00:23;;;;;;;;;;;;;;;16.06;56.04;100169.34;5014522;28;6820;-79
2022/06/22 04:02:50;;;;;;;;;;;;;;;16.12;55.83;100171.19;5009770;28;7152;-79
2022/06/22 04:05:25;;;;;;;;;;;;;;;16.20;56.06;100172.25;5012014;28;6819;-79
2022/06/22 04:07:54;;;;;;;;;;;;;;;16.27;55.60;100178.41;5009266;28;8730;-79
2022/06/22 04:11:05;;;;;;;;;;;;;;;16.36;55.82;100168.25;4992374;28;6816;-80
2022/06/22 04:13:57;;;;;;;;;;;;;;;16.48;55.87;100172.81;5011685;28;7084;-80
2022/06/22 04:16:35;;;;;;;;;;;;;;;16.61;56.28;100168.72;5019357;28;7286;-80
2022/06/22 04:19:18;;;;;;;;;;;;;;;16.75;56.37;100167.31;5015325;28;6985;-80
2022/06/22 04:21:55;;;;;;;;;;;;;;;16.89;56.13;100170.16;5016109;28;7314;-81
2022/06/22 04:24:57;;;;;;;;;;;;;;;17.05;56.63;100171.31;4995101;28;6828;-81
2022/06/22 04:27:34;;;;;;;;;;;;;;;17.30;56.58;100174.34;4984854;28;8123;-81
2022/06/22 04:30:12;;;;;;;;;;;;;;;17.48;56.07;100170.31;5011412;28;7042;-81
2022/06/22 04:33:18;;;;;;;;;;;;;;;17.61;55.60;100161.88;5013558;28;7458;-81
2022/06/22 04:36:08;;;;;;;;;;;;;;;17.72;55.35;100158.56;5013737;28;8317;-81
2022/06/22 04:39:01;;;;;;;;;;;;;;;17.88;55.23;100167.44;5007614;28;7915;-81
2022/06/22 04:41:38;;;;;;;;;;;;;;;18.06;55.65;100156.50;5010277;28;7292;-81
2022/06/22 04:44:12;;;;;;;;;;;;;;;18.37;55.41;100151.69;5006404;28;8111;-81
2022/06/22 04:46:46;;;;;;;;;;;;;;;18.77;56.07;100160.78;5017905;28;7082;-81
2022/06/22 04:49:22;;;;;;;;;;;;;;;19.29;55.57;100169.06;4991881;28;7160;-79
2022/06/22 04:52:02;;;;;;;;;;;;;;;19.79;54.81;100171.19;5015274;28;7209;-78
2022/06/22 04:54:34;;;;;;;;;;;;;;;20.27;53.06;100163.66;5008007;28;8092;-78
2022/06/22 04:57:21;;;;;;;;;;;;;;;20.58;51.03;100165.50;5007356;28;7268;-78
2022/06/22 04:59:49;;;;;;;;;;;;;;;20.70;49.87;100170.72;4981698;28;7285;-78
2022/06/22 05:02:23;;;;;;;;;;;;;;;20.77;49.66;100172.50;4997332;28;8422;-78
2022/06/22 05:04:56;;;;;;;;;;;;;;;20.80;48.85;100176.84;5013398;28;6983;-78
2022/06/22 05:07:50;;;;;;;;;;;;;;;20.82;48.93;100175.13;5005507;28;8682;-77
2022/06/22 05:10:39;;;;;;;;;;;;;;;20.87;48.74;100176.03;4997971;28;7198;-77
2022/06/22 05:13:25;;;;;;;;;;;;;;;20.98;48.46;100172.56;5012710;28;6843;-77
2022/06/22 05:15:56;;;;;;;;;;;;;;;20.97;47.54;100179.50;5020759;28;6964;-77
2022/06/22 05:18:36;;;;;;;;;;;;;;;20.85;47.46;100169.94;5017722;28;6791;-79
2022/06/22 05:21:19;;;;;;;;;;;;;;;20.70;47.96;100172.47;5024170;28;7027;-79
2022/06/22 05:23:53;;;;;;;;;;;;;;;20.72;48.60;100170.75;5012870;28;7173;-79
2022/06/22 05:26:24;;;;;;;;;;;;;;;20.91;48.96;100169.09;4983560;28;8785;-79
2022/06/22 05:29:32;;;;;;;;;;;;;;;21.12;48.25;100157.81;5000792;28;8450;-79
2022/06/22 05:32:06;;;;;;;;;;;;;;;21.39;48.19;100155.19;5015444;28;6824;-79
2022/06/22 05:34:37;;;;;;;;;;;;;;;21.63;48.33;100159.50;5019974;28;6800;-79
2022/06/22 05:37:21;;;;;;;;;;;;;;;21.96;47.86;100157.75;5015589;28;6803;-79
2022/06/22 05:39:47;;;;;;;;;;;;;;;22.24;47.40;100156.78;5007494;28;7813;-79
2022/06/22 05:42:16;;;;;;;;;;;;;;;22.42;46.59;100155.84;5017696;28;7102;-79
2022/06/22 05:44:42;;;;;;;;;;;;;;;22.50;45.64;100158.44;5012571;28;6892;-79
2022/06/22 05:47:19;;;;;;;;;;;;;;;22.48;45.44;100163.63;5023144;28;7241;-79
2022/06/22 05:49:59;;;;;;;;;;;;;;;22.51;45.83;100161.06;5000764;28;6908;-79
2022/06/22 05:52:46;;;;;;;;;;;;;;;22.54;45.82;100165.38;5019184;28;7221;-79
2022/06/22 05:55:19;;;;;;;;;;;;;;;22.63;45.70;100164.47;5015697;28;6961;-79
2022/06/22 05:58:13;;;;;;;;;;;;;;;22.77;45.14;100170.47;5013689;28;7793;-77
2022/06/22 06:00:49;;;;;;;;;;;;;;;22.84;44.48;100174.78;5014573;28;7835;-77
2022/06/22 06:03:43;;;;;;;;;;;;;;;22.84;44.30;100177.41;5018158;28;9147;-77
2022/06/22 06:06:29;;;;;;;;;;;;;;;22.73;44.11;100167.00;5001448;28;7010;-77
2022/06/22 06:09:09;;;;;;;;;;;;;;;22.59;43.70;100174.91;5016698;28;6895;-77
2022/06/22 06:11:46;;;;;;;;;;;;;;;22.44;43.40;100180.19;4996544;28;8562;-77
2022/06/22 06:14:34;;;;;;;;;;;;;;;22.26;44.13;100179.41;5000605;28;6896;-77
2022/06/22 06:17:13;;;;;;;;;;;;;;;22.15;44.06;100178.56;5014224;28;6903;-77
2022/06/22 06:19:48;;;;;;;;;;;;;;;22.09;44.03;100178.59;5006646;28;8065;-77
2022/06/22 06:22:14;;;;;;;;;;;;;;;22.03;44.22;100185.56;5012341;28;6891;-77
2022/06/22 06:27:58;;;;;;;;;;;;;;;21.93;44.59;100189.06;5018856;28;7695;-78
2022/06/22 06:30:33;;;;;;;;;;;;;;;21.95;45.01;100189.06;4998906;28;6815;-78
2022/06/22 06:33:13;;;;;;;;;;;;;;;21.96;44.89;100194.28;4995773;28;6835;-78
2022/06/22 06:35:53;;;;;;;;;;;;;;;22.00;44.76;100190.78;5022678;28;7218;-77
2022/06/22 06:38:40;;;;;;;;;;;;;;;22.03;44.91;100185.56;5013357;28;6816;-77
2022/06/22 06:41:24;;;;;;;;;;;;;;;22.07;44.96;100189.03;5015096;28;6964;-77
2022/06/22 06:44:09;;;;;;;;;;;;;;;22.12;44.79;100189.03;4997943;28;6808;-78
2022/06/22 06:46:44;;;;;;;;;;;;;;;22.18;45.06;100186.38;4999295;28;6965;-78
2022/06/22 06:49:31;;;;;;;;;;;;;;;22.26;45.10;100184.63;5009029;28;7249;-77
2022/06/22 06:52:22;;;;;;;;;;;;;;;22.34;44.58;100187.19;4992459;28;6796;-77
2022/06/22 06:55:18;;;;;;;;;;;;;;;;;;5014749;28;6876;-77
2022/06/22 06:58:19;;;;;;;;;;;;;;;22.73;44.66;100185.28;5002469;28;6824;-77
2022/06/22 07:00:47;;;;;;;;;;;;;;;23.15;44.53;100194.63;5014608;28;7900;-78
2022/06/22 07:03:38;;;;;;;;;;;;;;;23.69;44.67;100190.69;5010733;28;7209;-78
2022/06/22 07:06:05;;;;;;;;;;;;;;;24.27;44.06;100176.13;5013069;28;7643;-78
2022/06/22 07:08:56;;;;;;;;;;;;;;;24.88;43.03;100170.13;5000783;28;7204;-77
2022/06/22 07:11:31;;;;;;;;;;;;;;;25.43;42.23;100167.47;5015883;28;6980;-77
2022/06/22 07:14:26;;;;;;;;;;;;;;;25.93;40.91;100169.25;4977378;28;7238;-77
2022/06/22 07:17:23;;;;;;;;;;;;;;;26.29;39.86;100163.28;5013135;28;6811;-77
2022/06/22 07:20:40;;;;;;;;;;;;;;;26.61;39.47;100149.47;5011460;28;6832;-77
2022/06/22 07:23:25;;;;;;;;;;;;;;;26.88;38.69;100147.09;5005803;28;7184;-77
2022/06/22 07:26:21;;;;;;;;;;;;;;;27.12;38.45;100138.66;4999102;28;7449;-77
2022/06/22 07:29:13;;;;;;;;;;;;;;;27.48;38.06;100143.88;4973284;28;6836;-77
2022/06/22 07:32:02;;;;;;;;;;;;;;;27.85;37.07;100144.66;5000824;28;7205;-77
2022/06/22 07:34:39;;;;;;;;;;;;;;;28.14;37.14;100146.47;5011680;28;6884;-77
2022/06/22 07:37:27;;;;;;;;;;;;;;;28.47;36.46;100152.56;5015088;28;6808;-78
2022/06/22 07:40:24;;;;;;;;;;;;;;;28.79;36.05;100148.06;5009327;28;6849;-77
2022/06/22 07:42:51;;;;;;;;;;;;;;;29.09;35.02;100158.56;4999886;28;7288;-78
2022/06/22 07:45:22;;;;;;;;;;;;;;;29.34;34.39;100158.59;5010535;28;7349;-78
2022/06/22 07:47:59;;;;;;;;;;;;;;;29.51;33.79;100160.66;5021604;28;7089;-78
2022/06/22 07:50:33;;;;;;;;;;;;;;;29.68;33.49;100153.06;5009503;28;6831;-78
2022/06/22 07:53:33;;;;;;;;;;;;;;;29.93;33.75;100161.81;5016723;28;6887;-78
2022/06/22 07:56:20;;;;;;;;;;;;;;;30.31;32.96;100156.03;4990194;28;6828;-77
2022/06/22 07:58:51;;;;;;;;;;;;;;;30.64;32.18;100154.78;5010704;28;7781;-78
2022/06/22 08:01:29;;;;;;;;;;;;;;;30.93;31.80;100152.75;5009546;28;7098;-78
2022/06/22 08:04:39;;;;;;;;;;;;;;;31.26;31.41;100154.09;4999245;28;6903;-78
2022/06/22 08:07:16;;;;;;;;;;;;;;;31.45;31.17;100154.19;4998461;28;6900;-78
2022/06/22 08:10:08;;;;;;;;;;;;;;;31.63;31.20;100149.84;5017758;28;6816;-78
2022/06/22 08:12:55;;;;;;;;;;;;;;;31.90;31.11;100149.59;5008361;28;7129;-78
2022/06/22 08:15:23;;;;;;;;;;;;;;;32.27;30.58;100145.22;5005383;28;7053;-78
2022/06/22 08:17:57;;;;;;;;;;;;;;;32.61;29.68;100142.78;4992293;28;7035;-78
2022/06/22 08:20:33;;;;;;;;;;;;;;;32.72;29.09;100136.94;5009575;28;6799;-78
2022/06/22 08:23:04;;;;;;;;;;;;;;;32.71;28.75;100140.53;5012322;28;6941;-78
2022/06/22 08:25:33;;;;;;;;;;;;;;;32.76;28.91;100142.94;4984607;28;8058;-78
2022/06/22 08:28:02;;;;;;;;;;;;;;;32.88;28.74;100138.84;5027198;28;7166;-78
2022/06/22 08:30:30;;;;;;;;;;;;;;;33.03;29.12;100154.03;5013308;28;6985;-78
2022/06/22 08:33:08;;;;;;;;;;;;;;;33.28;28.60;100158.09;5023898;28;6812;-78
2022/06/22 08:35:49;;;;;;;;;;;;;;;33.51;28.00;100158.72;5019946;28;6804;-78
2022/06/22 08:38:44;;;;;;;;;;;;;;;33.65;27.82;100155.31;5000766;28;8364;-78
2022/06/22 08:41:31;;;;;;;;;;;;;;;33.86;27.24;100155.16;5013585;28;6992;-78
2022/06/22 08:44:47;;;;;;;;;;;;;;;34.08;27.13;100141.56;5012531;28;7384;-78
2022/06/22 08:47:42;;;;;;;;;;;;;;;34.40;26.16;100146.03;5013518;28;7090;-78
2022/06/22 08:50:50;;;;;;;;;;;;;;;34.58;25.90;100149.50;4998824;28;6903;-78
2022/06/22 08:53:30;;;;;;;;;;;;;;;34.67;25.43;100135.66;5014252;28;6839;-78
2022/06/22 08:56:40;;;;;;;;;;;;;;;34.69;25.05;100135.56;5012013;28;6883;-79
2022/06/22 09:00:09;;;;;;;;;;;;;;;34.76;25.25;100148.41;5012554;28;7010;-78
2022/06/22 09:03:08;;;;;;;;;;;;;;;34.79;23.99;100142.06;4920091;28;6816;-77
2022/06/22 09:05:51;;;;;;;;;;;;;;;34.69;24.40;100141.75;4935395;28;7438;-78
2022/06/22 09:08:35;;;;;;;;;;;;;;;34.61;24.39;100138.66;5016556;28;7332;-78
2022/06/22 09:11:45;;;;;;;;;;;;;;;34.58;24.37;100130.88;4994208;28;7091;-78
2022/06/22 09:14:21;;;;;;;;;;;;;;;34.61;24.82;100128.03;5019901;28;7215;-78
2022/06/22 09:17:14;;;;;;;;;;;;;;;34.89;24.93;100132.59;4997158;28;6879;-78
2022/06/22 09:19:39;;;;;;;;;;;;;;;35.16;24.43;100131.09;5008736;28;7193;-78
2022/06/22 09:22:34;;;;;;;;;;;;;;;35.14;24.20;100138.28;5016056;28;8049;-78
2022/06/22 09:25:28;;;;;;;;;;;;;;;35.02;24.19;100138.03;4989733;28;7252;-78
2022/06/22 09:28:23;;;;;;;;;;;;;;;35.01;24.08;100135.47;5015994;28;7072;-78
2022/06/22 09:31:29;;;;;;;;;;;;;;;35.15;23.68;100129.34;5003118;28;6846;-78
2022/06/22 09:34:26;;;;;;;;;;;;;;;35.24;23.96;100126.13;5018755;28;6903;-78
2022/06/22 09:37:09;;;;;;;;;;;;;;;35.41;23.70;100122.47;5014767;28;7140;-78
2022/06/22 09:40:09;;;;;;;;;;;;;;;35.69;23.40;100120.81;4999874;28;7346;-78
2022/06/22 09:43:00;;;;;;;;;;;;;;;35.99;23.33;100116.28;5015946;28;6819;-78
2022/06/22 09:46:04;;;;;;;;;;;;;;;36.13;22.77;100113.63;5015502;28;7019;-78
2022/06/22 09:49:17;;;;;;;;;;;;;;;36.30;22.75;100114.31;5012035;28;7030;-79
2022/06/22 09:51:58;;;;;;;;;;;;;;;36.37;21.70;100096.97;5009077;28;6827;-78
2022/06/22 09:58:25;;;;;;;;;;;;;;;36.22;21.99;100095.31;5016703;28;7141;-78
2022/06/22 10:01:37;;;;;;;;;;;;;;;36.34;22.78;100097.19;5013256;28;6812;-78
2022/06/22 10:04:21;;;;;;;;;;;;;;;36.65;22.41;100096.97;5014890;28;8235;-78
2022/06/22 10:07:28;;;;;;;;;;;;;;;36.77;21.68;100095.28;5017445;28;6895;-78
2022/06/22 10:10:50;;;;;;;;;;;;;;;36.99;21.77;100091.16;5013045;28;7228;-78
2022/06/22 10:13:46;;;;;;;;;;;;;;;37.30;21.33;100097.94;5001596;28;6881;-78
2022/06/22 10:16:50;;;;;;;;;;;;;;;37.28;21.55;100091.84;5013088;28;6962;-78
2022/06/22 10:19:40;;;;;;;;;;;;;;;37.19;21.58;100096.03;5010153;28;7169;-78
2022/06/22 10:22:30;;;;;;;;;;;;;;;36.95;21.87;100093.22;5018089;28;6981;-78
2022/06/22 10:25:30;;;;;;;;;;;;;;;36.85;22.27;100092.97;5029276;28;7400;-78
2022/06/22 10:28:34;;;;;;;;;;;;;;;36.92;21.90;100093.41;5002377;28;7036;-78
2022/06/22 10:31:20;;;;;;;;;;;;;;;36.94;22.40;100092.34;5007505;28;7003;-78
2022/06/22 10:34:01;;;;;;;;;;;;;;;37.02;21.96;100088.28;5007331;28;7429;-78
2022/06/22 10:36:56;;;;;;;;;;;;;;;37.17;21.79;100084.59;5010293;28;6985;-78
2022/06/22 10:39:43;;;;;;;;;;;;;;;37.48;21.57;100094.94;5028008;28;6800;-78
2022/06/22 10:45:43;;;;;;;;;;;;;;;38.23;21.28;100093.19;5010743;28;7262;-78
2022/06/22 10:48:37;;;;;;;;;;;;;;;38.68;20.48;100089.91;5015502;28;7113;-78
2022/06/22 10:51:28;;;;;;;;;;;;;;;39.07;20.57;100089.66;5010195;28;6857;-78
2022/06/22 10:54:42;;;;;;;;;;;;;;;39.38;19.86;100102.50;5012776;28;6907;-78
2022/06/22 10:57:32;;;;;;;;;;;;;;;39.51;19.59;100097.88;5013412;28;8297;-78
2022/06/22 11:00:38;;;;;;;;;;;;;;;39.60;19.74;100093.63;5012845;28;6915;-78
2022/06/22 11:03:57;;;;;;;;;;;;;;;39.74;19.51;100097.88;4989956;28;7222;-78
2022/06/22 11:07:08;;;;;;;;;;;;;;;39.74;19.46;100099.72;5017296;28;6841;-78
2022/06/22 11:10:05;;;;;;;;;;;;;;;39.65;19.21;100104.81;5016166;28;7275;-78
2022/06/22 11:13:11;;;;;;;;;;;;;;;39.46;19.30;100107.28;5006465;28;6999;-78
2022/06/22 11:16:07;;;;;;;;;;;;;;;39.18;19.26;100102.22;5013096;28;7237;-78
2022/06/22 11:18:51;;;;;;;;;;;;;;;39.09;19.65;100097.59;5013765;28;7179;-78
2022/06/22 11:21:38;;;;;;;;;;;;;;;39.19;19.55;100109.28;5031130;28;7053;-78
2022/06/22 11:24:12;;;;;;;;;;;;;;;39.43;19.56;100100.31;4993774;28;7078;-79
2022/06/22 11:30:48;;;;;;;;;;;;;;;39.88;18.64;100088.72;5013630;28;6903;-78
2022/06/22 11:33:48;;;;;;;;;;;;;;;39.90;18.81;100085.94;5011617;28;6819;-78
2022/06/22 11:36:52;;;;;;;;;;;;;;;39.80;18.69;100097.38;5011203;28;6903;-78
2022/06/22 11:39:47;;;;;;;;;;;;;;;39.62;18.79;100090.81;5008770;28;7868;-78
2022/06/22 11:42:42;;;;;;;;;;;;;;;39.52;18.78;100101.44;5024011;28;7002;-78
2022/06/22 11:48:43;;;;;;;;;;;;;;;39.30;18.96;100108.44;5008932;28;6965;-78
2022/06/22 11:51:34;;;;;;;;;;;;;;;39.16;19.16;100105.03;5008165;28;7816;-78
2022/06/22 11:54:23;;;;;;;;;;;;;;;39.21;18.91;100111.84;5015816;28;6866;-78
2022/06/22 11:57:01;;;;;;;;;;;;;;;39.23;18.77;100104.56;5011992;28;6804;-78
2022/06/22 12:00:14;;;;;;;;;;;;;;;39.27;18.82;100101.50;5008658;28;6914;-78
2022/06/22 12:03:07;;;;;;;;;;;;;;;39.53;19.03;100100.47;5007627;28;7382;-78
2022/06/22 12:06:30;;;;;;;;;;;;;;;39.84;18.93;100104.22;5025735;28;7080;-78
2022/06/22 12:09:30;;;;;;;;;;;;;;;40.02;18.55;100095.66;4976595;28;7006;-78
2022/06/22 12:12:35;;;;;;;;;;;;;;;40.04;18.17;100087.50;5022301;28;6910;-79
2022/06/22 12:15:38;;;;;;;;;;;;;;;39.85;18.47;100081.78;5023260;28;9849;-78
2022/06/22 12:18:47;;;;;;;;;;;;;;;39.47;18.50;100090.22;4997634;28;7237;-78
2022/06/22 12:21:46;;;;;;;;;;;;;;;39.12;18.96;100078.59;5001443;28;8922;-78
2022/06/22 12:24:52;;;;;;;;;;;;;;;38.85;18.79;100075.22;5004118;28;7293;-77
2022/06/22 12:27:28;;;;;;;;;;;;;;;38.69;19.07;100074.69;5004819;28;7226;-77
2022/06/22 12:30:38;;;;;;;;;;;;;;;38.65;19.08;100076.75;5007562;28;6959;-78
2022/06/22 12:33:29;;;;;;;;;;;;;;;38.68;18.94;100073.84;4997089;28;8534;-78
2022/06/22 12:36:23;;;;;;;;;;;;;;;38.69;18.84;100066.66;4995144;28;8528;-78
2022/06/22 12:39:11;;;;;;;;;;;;;;;38.91;19.33;100057.84;5013240;28;7202;-78
2022/06/22 12:42:00;;;;;;;;;;;;;;;39.18;19.11;100059.38;5016954;28;6828;-77
2022/06/22 12:45:09;;;;;;;;;;;;;;;39.35;18.39;100062.50;4981893;28;6923;-76
2022/06/22 12:48:01;;;;;;;;;;;;;;;39.14;18.47;100055.22;5025969;28;7296;-77
2022/06/22 12:50:56;;;;;;;;;;;;;;;38.81;18.48;100040.78;5002904;28;6840;-78
2022/06/22 12:53:40;;;;;;;;;;;;;;;38.58;18.87;100040.69;5010503;28;6812;-78
2022/06/22 12:56:59;;;;;;;;;;;;;;;38.46;18.89;100039.81;5006182;28;7919;-77
2022/06/22 12:59:39;;;;;;;;;;;;;;;38.53;19.22;100038.38;4908800;29;8713;-77
2022/06/22 13:02:12;;;;;;;;;;;;;;;38.49;19.20;100036.91;4995566;28;8692;-77
2022/06/22 13:04:38;;;;;;;;;;;;;;;38.31;19.01;100029.28;5016774;28;7000;-77
2022/06/22 13:07:13;;;;;;;;;;;;;;;38.19;19.13;100024.84;5017313;28;7848;-78
2022/06/22 13:09:41;;;;;;;;;;;;;;;38.25;19.02;100029.75;4991139;28;6808;-77
2022/06/22 13:12:19;;;;;;;;;;;;;;;38.38;18.52;100026.16;5007978;28;6986;-78
2022/06/22 13:15:12;;;;;;;;;;;;;;;38.47;18.26;100018.25;5000896;28;7221;-77
2022/06/22 13:18:04;;;;;;;;;;;;;;;38.23;18.32;100017.47;5000127;28;6799;-77
2022/06/22 13:20:51;;;;;;;;;;;;;;;37.86;18.50;100023.66;5017371;28;6979;-77
2022/06/22 13:23:33;;;;;;;;;;;;;;;37.61;19.17;100015.63;5001532;28;7061;-77
2022/06/22 13:26:32;;;;;;;;;;;;;;;37.56;18.98;100007.09;5018394;28;6788;-78
2022/06/22 13:29:32;;;;;;;;;;;;;;;37.65;18.83;100010.91;5015809;28;7219;-77
2022/06/22 13:32:06;;;;;;;;;;;;;;;37.72;19.05;100011.34;5013593;28;7195;-77
2022/06/22 13:34:46;;;;;;;;;;;;;;;37.76;18.59;100000.31;5022050;28;9261;-77
2022/06/22 13:37:17;;;;;;;;;;;;;;;37.88;18.66;99992.34;5008762;28;7218;-78
2022/06/22 13:40:26;;;;;;;;;;;;;;;38.20;18.78;100005.16;5024692;28;7188;-78
2022/06/22 13:43:24;;;;;;;;;;;;;;;38.41;18.69;100008.03;4949258;28;6804;-77
2022/06/22 13:46:09;;;;;;;;;;;;;;;38.37;18.23;100003.88;5015906;28;7329;-77
2022/06/22 13:49:04;;;;;;;;;;;;;;;38.26;18.13;99999.34;5024699;28;8489;-77
2022/06/22 13:52:03;;;;;;;;;;;;;;;38.27;17.96;99995.72;5014814;28;6831;-77
2022/06/22 13:54:46;;;;;;;;;;;;;;;38.40;18.56;99989.41;5012108;28;6820;-77
2022/06/22 13:57:22;;;;;;;;;;;;;;;38.53;18.33;99990.19;5017640;28;6816;-77
2022/06/22 14:00:06;;;;;;;;;;;;;;;38.53;18.07;99990.19;5006450;28;7751;-77
2022/06/22 14:02:53;;;;;;;;;;;;;;;38.27;17.73;99989.50;5015846;28;7250;-77
2022/06/22 14:05:37;;;;;;;;;;;;;;;37.76;18.34;99991.44;4997408;28;6805;-77
2022/06/22 14:08:09;;;;;;;;;;;;;;;37.31;18.71;100002.63;5033512;28;7075;-77
2022/06/22 14:10:57;;;;;;;;;;;;;;;36.86;18.21;99998.56;5017719;28;6796;-77
2022/06/22 14:14:09;;;;;;;;;;;;;;;36.52;19.13;100001.72;5018700;28;6819;-77
2022/06/22 14:17:02;;;;;;;;;;;;;;;36.28;18.88;99993.56;5010774;28;7215;-77
2022/06/22 14:20:12;;;;;;;;;;;;;;;35.97;19.12;99992.88;5015497;28;7646;-77
2022/06/22 14:22:41;;;;;;;;;;;;;;;35.76;19.62;99989.81;5010788;28;6960;-78
2022/06/22 14:25:31;;;;;;;;;;;;;;;35.74;19.26;99984.59;5024271;28;6808;-78
2022/06/22 14:28:04;;;;;;;;;;;;;;;35.81;19.08;99985.88;5031865;28;6800;-77
2022/06/22 14:31:11;;;;;;;;;;;;;;;35.94;19.33;99982.44;5022822;28;6824;-77
2022/06/22 14:34:03;;;;;;;;;;;;;;;36.13;19.76;99988.28;5012101;28;6992;-77
2022/06/22 14:36:47;;;;;;;;;;;;;;;36.11;19.70;99979.53;5014911;28;7249;-78
2022/06/22 14:39:19;;;;;;;;;;;;;;;36.08;19.98;99969.06;5011258;28;6965;-78
2022/06/22 14:42:00;;;;;;;;;;;;;;;36.22;19.89;99972.66;5013371;28;7239;-77
2022/06/22 14:45:01;;;;;;;;;;;;;;;36.36;19.16;99975.22;5014035;28;7206;-77
2022/06/22 14:47:55;;;;;;;;;;;;;;;36.36;19.50;99974.34;5015193;28;7018;-77
2022/06/22 14:50:41;;;;;;;;;;;;;;;36.19;18.75;99978.16;4992054;28;6970;-77